Time;durP1;ratioP1;P1;durP2;ratioP2;P2;SDS_P1;SDS_P2;PMS_P1;PMS_P2;Temp;Humidity;BMP_temperature;BMP_pressure;BME280_temperature;BME280_humidity;BME280_pressure;Samples;Min_cycle;Max_cycle;Signal;HPM_P1;HPM_P2
2023/07/03 00:01:44;;;;;;;;;;;;;;;;;;5012096;28;20290;-61
2023/07/03 00:04:10;;;;;;;;;;;;;;;;;;5015826;28;19913;-62
2023/07/03 00:06:36;;;;;;;;;;;;;;;;;;4998122;28;19941;-61
2023/07/03 00:09:02;;;;;;;;;;;;;;;;;;5015264;28;20290;-62
2023/07/03 00:11:28;;;;;;;;;;;;;;;;;;5013740;28;19961;-62
2023/07/03 00:13:54;;;;;;;;;;;;;;;;;;5014392;28;19913;-61
2023/07/03 00:16:20;;;;;;;;;;;;;;;;;;5030844;28;20000;-61
2023/07/03 00:18:48;;;;;;;;;;;;;;;;;;5009156;28;19917;-61
2023/07/03 00:21:13;;;;;;;;;;;;;;;;;;5014688;28;19927;-61
2023/07/03 00:23:39;;;;;;;;;;;;;;;;;;5015461;28;20277;-61
2023/07/03 00:26:05;;;;;;;;;;;;;;;;;;5015149;28;19960;-61
2023/07/03 00:28:31;;;;;;;;;;;;;;;;;;5014227;28;19963;-61
2023/07/03 00:30:57;;;;;;;;;;;;;;;;;;4997406;28;19914;-61
2023/07/03 00:33:23;;;;;;;;;;;;;;;;;;5014428;28;19914;-61
2023/07/03 00:35:49;;;;;;;;;;;;;;;;;;4994440;28;19952;-61
2023/07/03 00:38:15;;;;;;;;;;;;;;;;;;5014903;28;19917;-61
2023/07/03 00:40:41;;;;;;;;;;;;;;;;;;5013538;28;19962;-61
2023/07/03 00:43:07;;;;;;;;;;;;;;;;;;5014125;28;20430;-61
2023/07/03 00:45:33;;;;;;;;;;;;;;;;;;5014750;28;19918;-61
2023/07/03 00:47:59;;;;;;;;;;;;;;;;;;5014285;28;20320;-61
2023/07/03 00:50:25;;;;;;;;;;;;;;;;;;5028864;28;19963;-61
2023/07/03 00:52:51;;;;;;;;;;;;;;;;;;5013825;28;19977;-61
2023/07/03 00:55:17;;;;;;;;;;;;;;;;;;5010472;28;19921;-61
2023/07/03 00:57:43;;;;;;;;;;;;;;;;;;5014164;28;20370;-61
2023/07/03 01:00:09;;;;;;;;;;;;;;;;;;5013470;28;19992;-61
2023/07/03 01:02:35;;;;;;;;;;;;;;;;;;5014925;28;20341;-60
2023/07/03 01:05:01;;;;;;;;;;;;;;;;;;5013726;28;19951;-61
2023/07/03 01:07:27;;;;;;;;;;;;;;;;;;5012881;28;20409;-61
2023/07/03 01:09:53;;;;;;;;;;;;;;;;;;5011752;28;19914;-61
2023/07/03 01:12:19;;;;;;;;;;;;;;;;;;5007172;28;19944;-60
2023/07/03 01:14:45;;;;;;;;;;;;;;;;;;5012604;28;19924;-63
2023/07/03 01:17:11;;;;;;;;;;;;;;;;;;5014384;28;20274;-61
2023/07/03 01:19:36;;;;;;;;;;;;;;;;;;5013075;28;19925;-61
2023/07/03 01:22:02;;;;;;;;;;;;;;;;;;5014009;28;19956;-61
2023/07/03 01:24:28;;;;;;;;;;;;;;;;;;5014309;28;19996;-60
2023/07/03 01:26:54;;;;;;;;;;;;;;;;;;5013124;28;20387;-60
2023/07/03 01:29:20;;;;;;;;;;;;;;;;;;5005522;28;19918;-61
2023/07/03 01:31:46;;;;;;;;;;;;;;;;;;5012821;28;20386;-61
2023/07/03 01:34:12;;;;;;;;;;;;;;;;;;5014254;28;19960;-61
2023/07/03 01:36:38;;;;;;;;;;;;;;;;;;5014084;28;19996;-61
2023/07/03 01:39:04;;;;;;;;;;;;;;;;;;5013209;28;20382;-60
2023/07/03 01:41:30;;;;;;;;;;;;;;;;;;5012349;28;20417;-60
2023/07/03 01:43:56;;;;;;;;;;;;;;;;;;5006804;28;20048;-61
2023/07/03 01:46:22;;;;;;;;;;;;;;;;;;5005680;28;19913;-61
2023/07/03 01:48:47;;;;;;;;;;;;;;;;;;5012697;28;19960;-60
2023/07/03 01:51:13;;;;;;;;;;;;;;;;;;5013693;28;19914;-61
2023/07/03 01:53:39;;;;;;;;;;;;;;;;;;5013717;28;20348;-62
2023/07/03 01:56:05;;;;;;;;;;;;;;;;;;5013304;28;19924;-61
2023/07/03 01:58:32;;;;;;;;;;;;;;;;;;5012986;28;20398;-61
2023/07/03 02:00:58;;;;;;;;;;;;;;;;;;5012980;28;19940;-60
2023/07/03 02:03:24;;;;;;;;;;;;;;;;;;5010951;28;20333;-61
2023/07/03 02:05:50;;;;;;;;;;;;;;;;;;5009116;28;19921;-61
2023/07/03 02:08:16;;;;;;;;;;;;;;;;;;5013102;28;20010;-61
2023/07/03 02:10:42;;;;;;;;;;;;;;;;;;5012219;28;19960;-61
2023/07/03 02:13:08;;;;;;;;;;;;;;;;;;5009496;28;19913;-61
2023/07/03 02:15:34;;;;;;;;;;;;;;;;;;5011333;28;19952;-61
2023/07/03 02:18:01;;;;;;;;;;;;;;;;;;5010458;28;20297;-60
2023/07/03 02:20:27;;;;;;;;;;;;;;;;;;4994131;28;20337;-61
2023/07/03 02:22:53;;;;;;;;;;;;;;;;;;5007702;28;19999;-62
2023/07/03 02:25:19;;;;;;;;;;;;;;;;;;5011140;28;19918;-61
2023/07/03 02:27:45;;;;;;;;;;;;;;;;;;5012880;28;20072;-62
2023/07/03 02:30:11;;;;;;;;;;;;;;;;;;5009577;28;20008;-61
2023/07/03 02:32:37;;;;;;;;;;;;;;;;;;5012688;28;20313;-61
2023/07/03 02:35:03;;;;;;;;;;;;;;;;;;5011814;28;19913;-61
2023/07/03 02:37:29;;;;;;;;;;;;;;;;;;5009624;28;19920;-61
2023/07/03 02:39:55;;;;;;;;;;;;;;;;;;5012496;28;19917;-61
2023/07/03 02:42:21;;;;;;;;;;;;;;;;;;5012871;28;19920;-60
2023/07/03 02:44:47;;;;;;;;;;;;;;;;;;5012773;28;20416;-61
2023/07/03 02:47:13;;;;;;;;;;;;;;;;;;5011613;28;19949;-61
2023/07/03 02:49:39;;;;;;;;;;;;;;;;;;5001713;28;20385;-61
2023/07/03 02:52:05;;;;;;;;;;;;;;;;;;5007300;28;19945;-61
2023/07/03 02:54:31;;;;;;;;;;;;;;;;;;5012688;28;19918;-61
2023/07/03 02:56:57;;;;;;;;;;;;;;;;;;5012307;28;20436;-62
2023/07/03 02:59:23;;;;;;;;;;;;;;;;;;5011023;28;19914;-61
2023/07/03 03:01:49;;;;;;;;;;;;;;;;;;5006416;28;20350;-61
2023/07/03 03:04:16;;;;;;;;;;;;;;;;;;5012758;28;20012;-60
2023/07/03 03:06:42;;;;;;;;;;;;;;;;;;5012403;28;20015;-61
2023/07/03 03:09:09;;;;;;;;;;;;;;;;;;5008872;28;20017;-61
2023/07/03 03:11:34;;;;;;;;;;;;;;;;;;5011313;28;19913;-61
2023/07/03 03:14:00;;;;;;;;;;;;;;;;;;5011951;28;19918;-61
2023/07/03 03:16:26;;;;;;;;;;;;;;;;;;5011663;28;19957;-61
2023/07/03 03:18:52;;;;;;;;;;;;;;;;;;5011148;28;19993;-61
2023/07/03 03:21:18;;;;;;;;;;;;;;;;;;5010775;28;20399;-61
2023/07/03 03:23:44;;;;;;;;;;;;;;;;;;5010997;28;19921;-62
2023/07/03 03:26:10;;;;;;;;;;;;;;;;;;5015141;28;20164;-61
2023/07/03 03:28:36;;;;;;;;;;;;;;;;;;5015453;28;20320;-61
2023/07/03 03:31:02;;;;;;;;;;;;;;;;;;5030281;28;19963;-60
2023/07/03 03:33:28;;;;;;;;;;;;;;;;;;5015802;28;19914;-61
2023/07/03 03:35:54;;;;;;;;;;;;;;;;;;5015005;28;19940;-61
2023/07/03 03:38:19;;;;;;;;;;;;;;;;;;5015093;28;19949;-61
2023/07/03 03:40:45;;;;;;;;;;;;;;;;;;5012645;28;19971;-61
2023/07/03 03:43:11;;;;;;;;;;;;;;;;;;5013312;28;19909;-61
2023/07/03 03:45:37;;;;;;;;;;;;;;;;;;5015182;28;19913;-61
2023/07/03 03:48:03;;;;;;;;;;;;;;;;;;5013596;28;19948;-61
2023/07/03 03:50:29;;;;;;;;;;;;;;;;;;5016523;28;20000;-61
2023/07/03 03:52:55;;;;;;;;;;;;;;;;;;5015561;28;20342;-61
2023/07/03 03:55:21;;;;;;;;;;;;;;;;;;5013808;28;19996;-61
2023/07/03 03:57:47;;;;;;;;;;;;;;;;;;5009192;28;19993;-60
2023/07/03 04:00:16;;;;;;;;;;;;;;;;;;5014457;28;20024;-61
2023/07/03 04:02:42;;;;;;;;;;;;;;;;;;5017235;28;19913;-62
2023/07/03 04:05:08;;;;;;;;;;;;;;;;;;5022922;28;19920;-61
2023/07/03 04:07:33;;;;;;;;;;;;;;;;;;5027982;28;20013;-61
2023/07/03 04:09:59;;;;;;;;;;;;;;;;;;5012414;28;19918;-61
2023/07/03 04:12:25;;;;;;;;;;;;;;;;;;5010617;28;19961;-61
2023/07/03 04:14:51;;;;;;;;;;;;;;;;;;5012615;28;19975;-61
2023/07/03 04:17:17;;;;;;;;;;;;;;;;;;5013337;28;20076;-61
2023/07/03 04:19:43;;;;;;;;;;;;;;;;;;5012892;28;19921;-61
2023/07/03 04:22:09;;;;;;;;;;;;;;;;;;5015934;28;19923;-62
2023/07/03 04:24:35;;;;;;;;;;;;;;;;;;5016227;28;20293;-61
2023/07/03 04:27:01;;;;;;;;;;;;;;;;;;5044074;28;19945;-61
2023/07/03 04:29:26;;;;;;;;;;;;;;;;;;5015269;28;19949;-61
2023/07/03 04:31:52;;;;;;;;;;;;;;;;;;5023746;28;19913;-61
2023/07/03 04:34:18;;;;;;;;;;;;;;;;;;5010536;28;20720;-61
2023/07/03 04:36:45;;;;;;;;;;;;;;;;;;5024574;28;19917;-61
2023/07/03 04:39:10;;;;;;;;;;;;;;;;;;5012608;28;19917;-62
2023/07/03 04:41:36;;;;;;;;;;;;;;;;;;5013579;28;19978;-61
2023/07/03 04:44:03;;;;;;;;;;;;;;;;;;5027504;28;20296;-61
2023/07/03 04:46:29;;;;;;;;;;;;;;;;;;5006307;28;19921;-61
2023/07/03 04:49:03;;;;;;;;;;;;;;;;;;5005412;28;20365;-61
2023/07/03 04:51:30;;;;;;;;;;;;;;;;;;5014323;28;20456;-61
2023/07/03 04:53:56;;;;;;;;;;;;;;;;;;5029042;28;19909;-61
2023/07/03 04:56:24;;;;;;;;;;;;;;;;;;5017085;28;19959;-62
2023/07/03 04:58:50;;;;;;;;;;;;;;;;;;5006471;28;19964;-61
2023/07/03 05:01:16;;;;;;;;;;;;;;;;;;5014586;28;19960;-61
2023/07/03 05:03:41;;;;;;;;;;;;;;;;;;5010801;28;20003;-61
2023/07/03 05:06:07;;;;;;;;;;;;;;;;;;5024449;28;20059;-61
2023/07/03 05:08:33;;;;;;;;;;;;;;;;;;5006277;28;20412;-61
2023/07/03 05:10:59;;;;;;;;;;;;;;;;;;5011364;28;19918;-61
2023/07/03 05:13:25;;;;;;;;;;;;;;;;;;5009481;28;19976;-62
2023/07/03 05:15:51;;;;;;;;;;;;;;;;;;5023780;28;20028;-61
2023/07/03 05:18:17;;;;;;;;;;;;;;;;;;5015689;28;20000;-67
2023/07/03 05:20:44;;;;;;;;;;;;;;;;;;5012288;28;19928;-68
2023/07/03 05:23:10;;;;;;;;;;;;;;;;;;5026995;28;20374;-68
2023/07/03 05:25:36;;;;;;;;;;;;;;;;;;5016910;28;19924;-68
2023/07/03 05:28:02;;;;;;;;;;;;;;;;;;5015637;28;20003;-68
2023/07/03 05:30:27;;;;;;;;;;;;;;;;;;5016561;28;20006;-68
2023/07/03 05:32:54;;;;;;;;;;;;;;;;;;5009683;28;19961;-68
2023/07/03 05:35:20;;;;;;;;;;;;;;;;;;5009935;28;20281;-68
2023/07/03 05:37:46;;;;;;;;;;;;;;;;;;5011688;28;19929;-68
2023/07/03 05:40:11;;;;;;;;;;;;;;;;;;5020605;28;20044;-68
2023/07/03 05:42:37;;;;;;;;;;;;;;;;;;5015140;28;20353;-68
2023/07/03 05:45:03;;;;;;;;;;;;;;;;;;5008972;28;19917;-68
2023/07/03 05:47:29;;;;;;;;;;;;;;;;;;5036531;28;19944;-68
2023/07/03 05:49:55;;;;;;;;;;;;;;;;;;5014038;28;19956;-68
2023/07/03 05:52:21;;;;;;;;;;;;;;;;;;5009295;28;19991;-68
2023/07/03 05:54:47;;;;;;;;;;;;;;;;;;5024314;28;20021;-68
2023/07/03 05:57:13;;;;;;;;;;;;;;;;;;5010176;28;19968;-68
2023/07/03 05:59:39;;;;;;;;;;;;;;;;;;5010524;28;20445;-68
2023/07/03 06:02:05;;;;;;;;;;;;;;;;;;5018693;28;20004;-68
2023/07/03 06:04:33;;;;;;;;;;;;;;;;;;5010305;28;19985;-68
2023/07/03 06:06:59;;;;;;;;;;;;;;;;;;5012972;28;20289;-67
2023/07/03 06:09:25;;;;;;;;;;;;;;;;;;5007773;28;20023;-67
2023/07/03 06:11:51;;;;;;;;;;;;;;;;;;5012014;28;19968;-67
2023/07/03 06:14:17;;;;;;;;;;;;;;;;;;5006782;28;19952;-68
2023/07/03 06:16:43;;;;;;;;;;;;;;;;;;5013071;28;19913;-68
2023/07/03 06:19:09;;;;;;;;;;;;;;;;;;5011119;28;19971;-68
2023/07/03 06:21:35;;;;;;;;;;;;;;;;;;5019771;28;20422;-68
2023/07/03 06:24:01;;;;;;;;;;;;;;;;;;5004972;28;20004;-67
2023/07/03 06:26:27;;;;;;;;;;;;;;;;;;5005866;28;19936;-68
2023/07/03 06:28:52;;;;;;;;;;;;;;;;;;5014225;28;19916;-70
2023/07/03 06:31:18;;;;;;;;;;;;;;;;;;5008355;28;19960;-68
2023/07/03 06:33:44;;;;;;;;;;;;;;;;;;5011753;28;20427;-68
2023/07/03 06:36:10;;;;;;;;;;;;;;;;;;5008663;28;19928;-68
2023/07/03 06:38:36;;;;;;;;;;;;;;;;;;5013816;28;20376;-68
2023/07/03 06:41:02;;;;;;;;;;;;;;;;;;5016716;28;19925;-67
2023/07/03 06:43:28;;;;;;;;;;;;;;;;;;5015633;28;20365;-68
2023/07/03 06:45:54;;;;;;;;;;;;;;;;;;5019130;28;19933;-67
2023/07/03 06:48:20;;;;;;;;;;;;;;;;;;5009832;28;19971;-68
2023/07/03 06:50:46;;;;;;;;;;;;;;;;;;5014877;28;19957;-68
2023/07/03 06:53:12;;;;;;;;;;;;;;;;;;5020663;28;19909;-67
2023/07/03 06:55:38;;;;;;;;;;;;;;;;;;5013132;28;19924;-68
2023/07/03 06:58:04;;;;;;;;;;;;;;;;;;5013996;28;19913;-68
2023/07/03 07:00:30;;;;;;;;;;;;;;;;;;5010713;28;19957;-68
2023/07/03 07:02:56;;;;;;;;;;;;;;;;;;5010560;28;19913;-68
2023/07/03 07:05:21;;;;;;;;;;;;;;;;;;5011999;28;20008;-68
2023/07/03 07:07:47;;;;;;;;;;;;;;;;;;5010722;28;19913;-67
2023/07/03 07:10:13;;;;;;;;;;;;;;;;;;5011559;28;19956;-67
2023/07/03 07:12:39;;;;;;;;;;;;;;;;;;5011085;28;19996;-67
2023/07/03 07:15:05;;;;;;;;;;;;;;;;;;5011455;28;19949;-66
2023/07/03 07:17:31;;;;;;;;;;;;;;;;;;5020391;28;20007;-67
2023/07/03 07:19:59;;;;;;;;;;;;;;;;;;5024374;28;21558;-67
2023/07/03 07:22:25;;;;;;;;;;;;;;;;;;5024507;28;19922;-67
2023/07/03 07:24:51;;;;;;;;;;;;;;;;;;5009412;28;19944;-68
2023/07/03 07:27:17;;;;;;;;;;;;;;;;;;5010832;28;20369;-68
2023/07/03 07:29:43;;;;;;;;;;;;;;;;;;5010206;28;19909;-68
2023/07/03 07:32:09;;;;;;;;;;;;;;;;;;5011608;28;20342;-68
2023/07/03 07:34:35;;;;;;;;;;;;;;;;;;5007127;28;19948;-68
2023/07/03 07:37:01;;;;;;;;;;;;;;;;;;4993718;28;20444;-68
2023/07/03 07:39:27;;;;;;;;;;;;;;;;;;5007981;28;19959;-68
2023/07/03 07:41:55;;;;;;;;;;;;;;;;;;5010522;28;19925;-68
2023/07/03 07:44:21;;;;;;;;;;;;;;;;;;5011470;28;20381;-68
2023/07/03 07:46:47;;;;;;;;;;;;;;;;;;5003711;28;19956;-68
2023/07/03 07:49:13;;;;;;;;;;;;;;;;;;5026051;28;20004;-68
2023/07/03 07:51:39;;;;;;;;;;;;;;;;;;5011217;28;19971;-67
2023/07/03 07:54:05;;;;;;;;;;;;;;;;;;5012553;28;19957;-67
2023/07/03 07:56:31;;;;;;;;;;;;;;;;;;5022394;28;20002;-68
2023/07/03 07:58:57;;;;;;;;;;;;;;;;;;5011605;28;19952;-68
2023/07/03 08:01:23;;;;;;;;;;;;;;;;;;5019746;28;20014;-68
2023/07/03 08:03:49;;;;;;;;;;;;;;;;;;5024292;28;19909;-68
2023/07/03 08:06:15;;;;;;;;;;;;;;;;;;5015803;28;19966;-68
2023/07/03 08:08:41;;;;;;;;;;;;;;;;;;5009784;28;20389;-68
2023/07/03 08:11:07;;;;;;;;;;;;;;;;;;5012682;28;19946;-68
2023/07/03 08:13:33;;;;;;;;;;;;;;;;;;5004108;28;19952;-67
2023/07/03 08:15:59;;;;;;;;;;;;;;;;;;5017421;28;20581;-68
2023/07/03 08:18:24;;;;;;;;;;;;;;;;;;5013888;28;19932;-68
2023/07/03 08:20:50;;;;;;;;;;;;;;;;;;5012938;28;19952;-68
2023/07/03 08:23:16;;;;;;;;;;;;;;;;;;5015473;28;20072;-68
2023/07/03 08:25:42;;;;;;;;;;;;;;;;;;5022501;28;20618;-69
2023/07/03 08:28:08;;;;;;;;;;;;;;;;;;5025430;28;19960;-68
2023/07/03 08:30:34;;;;;;;;;;;;;;;;;;5016177;28;19948;-68
2023/07/03 08:33:00;;;;;;;;;;;;;;;;;;5020801;28;20277;-69
2023/07/03 08:35:26;;;;;;;;;;;;;;;;;;5019315;28;19914;-68
2023/07/03 08:37:52;;;;;;;;;;;;;;;;;;5013466;28;19914;-69
2023/07/03 08:40:18;;;;;;;;;;;;;;;;;;5008440;28;19971;-69
2023/07/03 08:42:44;;;;;;;;;;;;;;;;;;5021890;28;20389;-69
2023/07/03 08:45:10;;;;;;;;;;;;;;;;;;5014400;28;20343;-69
2023/07/03 08:47:36;;;;;;;;;;;;;;;;;;5010338;28;19920;-67
2023/07/03 08:50:03;;;;;;;;;;;;;;;;;;5013901;28;19920;-68
2023/07/03 08:52:28;;;;;;;;;;;;;;;;;;5015991;28;19913;-66
2023/07/03 08:54:54;;;;;;;;;;;;;;;;;;5026659;28;19919;-66
2023/07/03 08:57:20;;;;;;;;;;;;;;;;;;5014294;28;20500;-66
2023/07/03 08:59:46;;;;;;;;;;;;;;;;;;5015285;28;20451;-69
2023/07/03 09:02:12;;;;;;;;;;;;;;;;;;5020629;28;19923;-68
2023/07/03 09:04:38;;;;;;;;;;;;;;;;;;5022301;28;20000;-68
2023/07/03 09:07:04;;;;;;;;;;;;;;;;;;5021317;28;20297;-68
2023/07/03 09:09:30;;;;;;;;;;;;;;;;;;5012332;28;19917;-70
2023/07/03 09:11:56;;;;;;;;;;;;;;;;;;5010288;28;20406;-68
2023/07/03 09:14:22;;;;;;;;;;;;;;;;;;5028682;28;19944;-68
2023/07/03 09:16:48;;;;;;;;;;;;;;;;;;5020202;28;20274;-67
2023/07/03 09:19:16;;;;;;;;;;;;;;;;;;5018727;28;19960;-68
2023/07/03 09:21:42;;;;;;;;;;;;;;;;;;5026966;28;20396;-68
2023/07/03 09:24:08;;;;;;;;;;;;;;;;;;5021176;28;19953;-68
2023/07/03 09:26:34;;;;;;;;;;;;;;;;;;5007127;28;19928;-67
2023/07/03 09:29:00;;;;;;;;;;;;;;;;;;5013497;28;19914;-67
2023/07/03 09:31:26;;;;;;;;;;;;;;;;;;5010492;28;19918;-68
2023/07/03 09:33:52;;;;;;;;;;;;;;;;;;5011933;28;19917;-68
2023/07/03 09:36:18;;;;;;;;;;;;;;;;;;5019257;28;19929;-68
2023/07/03 09:38:44;;;;;;;;;;;;;;;;;;5023567;28;19928;-67
2023/07/03 09:41:10;;;;;;;;;;;;;;;;;;5019380;28;19969;-68
2023/07/03 09:43:36;;;;;;;;;;;;;;;;;;5018688;28;20273;-68
2023/07/03 09:46:02;;;;;;;;;;;;;;;;;;5020800;28;19923;-67
2023/07/03 09:48:27;;;;;;;;;;;;;;;;;;5026906;28;19909;-67
2023/07/03 09:50:53;;;;;;;;;;;;;;;;;;5014790;28;19950;-67
2023/07/03 09:53:19;;;;;;;;;;;;;;;;;;5013710;28;20386;-67
2023/07/03 09:55:45;;;;;;;;;;;;;;;;;;5015820;28;19909;-68
2023/07/03 09:58:11;;;;;;;;;;;;;;;;;;5001879;28;20000;-68
2023/07/03 10:00:37;;;;;;;;;;;;;;;;;;5002841;28;19967;-67
2023/07/03 10:03:03;;;;;;;;;;;;;;;;;;5020589;28;20004;-68
2023/07/03 10:05:29;;;;;;;;;;;;;;;;;;5026097;28;20438;-67
2023/07/03 10:07:55;;;;;;;;;;;;;;;;;;5020730;28;19922;-67
2023/07/03 10:10:22;;;;;;;;;;;;;;;;;;5024330;28;20300;-67
2023/07/03 10:12:48;;;;;;;;;;;;;;;;;;5005617;28;20036;-68
2023/07/03 10:15:14;;;;;;;;;;;;;;;;;;5009881;28;20224;-68
2023/07/03 10:17:39;;;;;;;;;;;;;;;;;;5014459;28;20012;-67
2023/07/03 10:20:09;;;;;;;;;;;;;;;;;;5018969;28;19921;-67
2023/07/03 10:22:37;;;;;;;;;;;;;;;;;;5009926;28;19929;-68
2023/07/03 10:25:04;;;;;;;;;;;;;;;;;;5007575;28;19987;-69
2023/07/03 10:27:30;;;;;;;;;;;;;;;;;;5018376;28;20020;-68
2023/07/03 10:29:55;;;;;;;;;;;;;;;;;;5017649;28;19996;-68
2023/07/03 10:32:21;;;;;;;;;;;;;;;;;;5023813;28;20555;-68
2023/07/03 10:34:47;;;;;;;;;;;;;;;;;;5014944;28;19910;-68
2023/07/03 10:37:13;;;;;;;;;;;;;;;;;;5012035;28;19971;-67
2023/07/03 10:39:40;;;;;;;;;;;;;;;;;;5011866;28;19913;-67
2023/07/03 10:42:06;;;;;;;;;;;;;;;;;;5008111;28;19955;-68
2023/07/03 10:44:32;;;;;;;;;;;;;;;;;;5011479;28;19953;-67
2023/07/03 10:46:58;;;;;;;;;;;;;;;;;;5008622;28;19963;-68
2023/07/03 10:49:24;;;;;;;;;;;;;;;;;;5016751;28;20015;-68
2023/07/03 10:51:52;;;;;;;;;;;;;;;;;;5011389;28;19909;-68
2023/07/03 10:54:18;;;;;;;;;;;;;;;;;;5010143;28;19916;-68
2023/07/03 10:56:44;;;;;;;;;;;;;;;;;;5015889;28;19909;-68
2023/07/03 10:59:10;;;;;;;;;;;;;;;;;;5016829;28;19969;-67
2023/07/03 11:01:36;;;;;;;;;;;;;;;;;;5014354;28;20420;-68
2023/07/03 11:04:02;;;;;;;;;;;;;;;;;;5001633;28;19918;-63
2023/07/03 11:06:28;;;;;;;;;;;;;;;;;;4998072;28;20365;-64
2023/07/03 11:08:54;;;;;;;;;;;;;;;;;;5012370;28;19914;-62
2023/07/03 11:11:20;;;;;;;;;;;;;;;;;;5006514;28;19921;-63
2023/07/03 11:13:49;;;;;;;;;;;;;;;;;;5006371;28;19918;-64
2023/07/03 11:16:15;;;;;;;;;;;;;;;;;;5006025;28;19913;-64
2023/07/03 11:18:41;;;;;;;;;;;;;;;;;;5025370;28;20389;-64
2023/07/03 11:21:07;;;;;;;;;;;;;;;;;;5007841;28;19971;-64
2023/07/03 11:23:33;;;;;;;;;;;;;;;;;;5022090;28;19945;-64
2023/07/03 11:25:59;;;;;;;;;;;;;;;;;;5015985;28;19937;-64
2023/07/03 11:28:25;;;;;;;;;;;;;;;;;;5018166;28;19949;-63
2023/07/03 11:30:50;;;;;;;;;;;;;;;;;;5014212;28;20428;-64
2023/07/03 11:33:16;;;;;;;;;;;;;;;;;;5003227;28;19917;-64
2023/07/03 11:35:42;;;;;;;;;;;;;;;;;;5003079;28;19921;-64
2023/07/03 11:38:09;;;;;;;;;;;;;;;;;;5009934;28;19948;-65
2023/07/03 11:40:35;;;;;;;;;;;;;;;;;;5006351;28;19985;-63
2023/07/03 11:43:01;;;;;;;;;;;;;;;;;;5010751;28;19918;-62
2023/07/03 11:45:27;;;;;;;;;;;;;;;;;;5015580;28;20342;-62
2023/07/03 11:47:53;;;;;;;;;;;;;;;;;;5017700;28;20007;-64
2023/07/03 11:50:19;;;;;;;;;;;;;;;;;;5007367;28;19996;-64
2023/07/03 11:52:45;;;;;;;;;;;;;;;;;;5007957;28;20568;-64
2023/07/03 11:55:11;;;;;;;;;;;;;;;;;;4994369;28;20186;-64
2023/07/03 11:57:37;;;;;;;;;;;;;;;;;;5007457;28;19961;-63
2023/07/03 12:00:03;;;;;;;;;;;;;;;;;;5008628;28;20017;-63
2023/07/03 12:02:29;;;;;;;;;;;;;;;;;;5009658;28;19914;-63
2023/07/03 12:04:57;;;;;;;;;;;;;;;;;;5011101;28;20309;-64
2023/07/03 12:07:22;;;;;;;;;;;;;;;;;;5012996;28;19914;-63
2023/07/03 12:09:48;;;;;;;;;;;;;;;;;;5010262;28;19955;-63
2023/07/03 12:12:14;;;;;;;;;;;;;;;;;;5007008;28;19960;-63
2023/07/03 12:14:40;;;;;;;;;;;;;;;;;;5009370;28;19921;-64
2023/07/03 12:17:07;;;;;;;;;;;;;;;;;;5010474;28;19952;-62
2023/07/03 12:19:33;;;;;;;;;;;;;;;;;;5007713;28;19922;-61
2023/07/03 12:21:59;;;;;;;;;;;;;;;;;;4997094;28;19921;-64
2023/07/03 12:24:25;;;;;;;;;;;;;;;;;;5017981;28;19913;-63
2023/07/03 12:26:51;;;;;;;;;;;;;;;;;;5011420;28;20377;-63
2023/07/03 12:29:17;;;;;;;;;;;;;;;;;;5011472;28;20028;-64
2023/07/03 12:31:42;;;;;;;;;;;;;;;;;;5010544;28;19948;-64
2023/07/03 12:34:08;;;;;;;;;;;;;;;;;;5011072;28;19963;-63
2023/07/03 12:36:34;;;;;;;;;;;;;;;;;;5006557;28;19917;-62
2023/07/03 12:39:00;;;;;;;;;;;;;;;;;;5015927;28;19932;-63
2023/07/03 12:41:26;;;;;;;;;;;;;;;;;;5010890;28;19918;-64
2023/07/03 12:43:52;;;;;;;;;;;;;;;;;;5029156;28;19935;-63
2023/07/03 12:46:18;;;;;;;;;;;;;;;;;;5033546;28;19996;-64
2023/07/03 12:48:45;;;;;;;;;;;;;;;;;;5031982;28;19987;-65
2023/07/03 12:51:11;;;;;;;;;;;;;;;;;;5009678;28;19920;-64
2023/07/03 12:53:37;;;;;;;;;;;;;;;;;;4995663;28;20370;-64
2023/07/03 12:56:03;;;;;;;;;;;;;;;;;;5013413;28;20063;-63
2023/07/03 12:58:29;;;;;;;;;;;;;;;;;;5012446;28;20370;-63
2023/07/03 13:00:55;;;;;;;;;;;;;;;;;;5013278;28;20397;-65
2023/07/03 13:03:22;;;;;;;;;;;;;;;;;;5015193;28;19961;-64
2023/07/03 13:05:47;;;;;;;;;;;;;;;;;;5010703;28;19917;-63
2023/07/03 13:08:13;;;;;;;;;;;;;;;;;;5011340;28;20012;-62
2023/07/03 13:10:39;;;;;;;;;;;;;;;;;;5013215;28;19921;-64
2023/07/03 13:13:05;;;;;;;;;;;;;;;;;;5015810;28;20294;-63
2023/07/03 13:15:31;;;;;;;;;;;;;;;;;;5012939;28;20453;-64
2023/07/03 13:17:57;;;;;;;;;;;;;;;;;;5013414;28;20000;-64
2023/07/03 13:20:24;;;;;;;;;;;;;;;;;;5012165;28;19964;-64
2023/07/03 13:22:50;;;;;;;;;;;;;;;;;;5026210;28;20723;-63
2023/07/03 13:25:16;;;;;;;;;;;;;;;;;;5021070;28;19948;-63
2023/07/03 13:27:42;;;;;;;;;;;;;;;;;;5014488;28;20054;-63
2023/07/03 13:30:08;;;;;;;;;;;;;;;;;;5013006;28;19929;-63
2023/07/03 13:32:34;;;;;;;;;;;;;;;;;;5013290;28;19913;-64
2023/07/03 13:35:00;;;;;;;;;;;;;;;;;;5011144;28;20392;-64
2023/07/03 13:37:26;;;;;;;;;;;;;;;;;;5028342;28;20389;-61
2023/07/03 13:39:52;;;;;;;;;;;;;;;;;;5016254;28;19978;-64
2023/07/03 13:42:18;;;;;;;;;;;;;;;;;;5009873;28;20388;-64
2023/07/03 13:44:44;;;;;;;;;;;;;;;;;;5015253;28;19949;-64
2023/07/03 13:47:10;;;;;;;;;;;;;;;;;;5012992;28;20385;-64
2023/07/03 13:49:35;;;;;;;;;;;;;;;;;;5017851;28;20452;-64
2023/07/03 13:52:01;;;;;;;;;;;;;;;;;;5027801;28;20014;-64
2023/07/03 13:54:27;;;;;;;;;;;;;;;;;;5007251;28;19913;-64
2023/07/03 13:56:53;;;;;;;;;;;;;;;;;;5005315;28;19956;-64
2023/07/03 13:59:19;;;;;;;;;;;;;;;;;;5025233;28;19971;-65
2023/07/03 14:01:45;;;;;;;;;;;;;;;;;;5022243;28;20016;-65
2023/07/03 14:04:11;;;;;;;;;;;;;;;;;;5031676;28;19909;-64
2023/07/03 14:06:37;;;;;;;;;;;;;;;;;;5026082;28;19960;-64
2023/07/03 14:09:03;;;;;;;;;;;;;;;;;;5018483;28;20396;-64
2023/07/03 14:11:29;;;;;;;;;;;;;;;;;;5015897;28;19997;-64
2023/07/03 14:13:55;;;;;;;;;;;;;;;;;;5021503;28;19949;-64
2023/07/03 14:16:21;;;;;;;;;;;;;;;;;;5017917;28;19948;-63
2023/07/03 14:18:47;;;;;;;;;;;;;;;;;;5008232;28;19917;-65
2023/07/03 14:21:13;;;;;;;;;;;;;;;;;;5017023;28;19925;-64
2023/07/03 14:23:40;;;;;;;;;;;;;;;;;;5011185;28;20071;-64
2023/07/03 14:26:06;;;;;;;;;;;;;;;;;;5007796;28;20254;-64
2023/07/03 14:28:32;;;;;;;;;;;;;;;;;;4999222;28;19941;-64
2023/07/03 14:30:58;;;;;;;;;;;;;;;;;;5008467;28;20321;-64
2023/07/03 14:33:24;;;;;;;;;;;;;;;;;;5010636;28;19921;-63
2023/07/03 14:35:50;;;;;;;;;;;;;;;;;;5011235;28;20072;-63
2023/07/03 14:38:16;;;;;;;;;;;;;;;;;;5015208;28;19917;-64
2023/07/03 14:40:42;;;;;;;;;;;;;;;;;;5012292;28;19925;-64
2023/07/03 14:43:07;;;;;;;;;;;;;;;;;;5009509;28;19949;-64
2023/07/03 14:45:33;;;;;;;;;;;;;;;;;;5012414;28;19957;-64
2023/07/03 14:47:59;;;;;;;;;;;;;;;;;;5014396;28;20399;-64
2023/07/03 14:50:25;;;;;;;;;;;;;;;;;;5013661;28;19913;-65
2023/07/03 14:52:51;;;;;;;;;;;;;;;;;;5020127;28;20019;-64
2023/07/03 14:55:17;;;;;;;;;;;;;;;;;;5011321;28;19996;-63
2023/07/03 14:57:44;;;;;;;;;;;;;;;;;;5008779;28;19952;-65
2023/07/03 15:00:10;;;;;;;;;;;;;;;;;;5015230;28;19929;-65
2023/07/03 15:02:36;;;;;;;;;;;;;;;;;;5007190;28;20392;-64
2023/07/03 15:05:02;;;;;;;;;;;;;;;;;;5009078;28;20563;-61
2023/07/03 15:07:28;;;;;;;;;;;;;;;;;;5004186;28;19957;-62
2023/07/03 15:09:54;;;;;;;;;;;;;;;;;;5003654;28;19931;-61
2023/07/03 15:12:20;;;;;;;;;;;;;;;;;;5006900;28;19917;-61
2023/07/03 15:14:46;;;;;;;;;;;;;;;;;;4987145;28;19949;-61
2023/07/03 15:17:12;;;;;;;;;;;;;;;;;;5002913;28;21261;-61
2023/07/03 15:19:38;;;;;;;;;;;;;;;;;;5009664;28;19985;-61
2023/07/03 15:22:04;;;;;;;;;;;;;;;;;;5007381;28;19928;-60
2023/07/03 15:24:29;;;;;;;;;;;;;;;;;;5006139;28;20702;-61
2023/07/03 15:26:56;;;;;;;;;;;;;;;;;;5003839;28;19961;-61
2023/07/03 15:29:22;;;;;;;;;;;;;;;;;;5007224;28;19921;-60
2023/07/03 15:31:48;;;;;;;;;;;;;;;;;;5004925;28;20009;-61
2023/07/03 15:34:14;;;;;;;;;;;;;;;;;;5007476;28;19913;-63
2023/07/03 15:36:40;;;;;;;;;;;;;;;;;;5004032;28;19977;-61
2023/07/03 15:39:06;;;;;;;;;;;;;;;;;;5011608;28;19960;-61
2023/07/03 15:41:32;;;;;;;;;;;;;;;;;;5000373;28;19968;-61
2023/07/03 15:43:58;;;;;;;;;;;;;;;;;;5003532;28;19921;-61
2023/07/03 15:46:24;;;;;;;;;;;;;;;;;;5011361;28;20004;-60
2023/07/03 15:48:51;;;;;;;;;;;;;;;;;;5024172;28;20008;-62
2023/07/03 15:51:17;;;;;;;;;;;;;;;;;;5019152;28;19909;-61
2023/07/03 15:53:43;;;;;;;;;;;;;;;;;;5014557;28;20285;-61
2023/07/03 15:56:09;;;;;;;;;;;;;;;;;;5011637;28;19913;-61
2023/07/03 15:58:35;;;;;;;;;;;;;;;;;;5009704;28;19913;-64
2023/07/03 16:01:01;;;;;;;;;;;;;;;;;;5008157;28;19960;-61
2023/07/03 16:03:27;;;;;;;;;;;;;;;;;;5010194;28;20304;-61
2023/07/03 16:05:53;;;;;;;;;;;;;;;;;;5009233;28;19928;-60
2023/07/03 16:08:18;;;;;;;;;;;;;;;;;;5004221;28;19910;-60
2023/07/03 16:10:44;;;;;;;;;;;;;;;;;;5010374;28;19949;-61
2023/07/03 16:13:10;;;;;;;;;;;;;;;;;;5009939;28;19916;-64
2023/07/03 16:15:36;;;;;;;;;;;;;;;;;;5010632;28;20322;-61
2023/07/03 16:18:02;;;;;;;;;;;;;;;;;;5007037;28;20022;-61
2023/07/03 16:20:31;;;;;;;;;;;;;;;;;;5006635;28;20087;-62
2023/07/03 16:22:57;;;;;;;;;;;;;;;;;;5018027;28;20333;-61
2023/07/03 16:25:22;;;;;;;;;;;;;;;;;;5003841;28;20068;-61
2023/07/03 16:27:49;;;;;;;;;;;;;;;;;;5011268;28;20048;-61
2023/07/03 16:30:15;;;;;;;;;;;;;;;;;;5014955;28;19914;-61
2023/07/03 16:32:41;;;;;;;;;;;;;;;;;;5006011;28;19956;-62
2023/07/03 16:35:07;;;;;;;;;;;;;;;;;;5009516;28;19962;-61
2023/07/03 16:37:32;;;;;;;;;;;;;;;;;;5009832;28;19921;-61